sensor_id;sensor_type;location;lat;lon;timestamp;P1;durP1;ratioP1;P2;durP2;ratioP2
49296;SDS011;35163;48.878;18.040;2023-04-29T00:00:42;14.68;;;7.10;;
49296;SDS011;35163;48.878;18.040;2023-04-29T00:03:09;14.27;;;7.25;;
49296;SDS011;35163;48.878;18.040;2023-04-29T00:05:36;14.10;;;7.60;;
49296;SDS011;35163;48.878;18.040;2023-04-29T00:08:03;15.38;;;7.30;;
49296;SDS011;35163;48.878;18.040;2023-04-29T00:10:30;12.35;;;7.20;;
49296;SDS011;35163;48.878;18.040;2023-04-29T00:12:56;16.67;;;7.50;;
49296;SDS011;35163;48.878;18.040;2023-04-29T00:15:23;14.40;;;7.38;;
49296;SDS011;35163;48.878;18.040;2023-04-29T00:17:49;14.35;;;7.05;;
49296;SDS011;35163;48.878;18.040;2023-04-29T00:20:16;14.80;;;7.53;;
49296;SDS011;35163;48.878;18.040;2023-04-29T00:22:43;17.42;;;7.63;;
49296;SDS011;35163;48.878;18.040;2023-04-29T00:25:10;14.80;;;7.50;;
49296;SDS011;35163;48.878;18.040;2023-04-29T00:27:37;13.75;;;7.57;;
49296;SDS011;35163;48.878;18.040;2023-04-29T00:30:05;18.65;;;7.15;;
49296;SDS011;35163;48.878;18.040;2023-04-29T00:32:33;15.95;;;6.97;;
49296;SDS011;35163;48.878;18.040;2023-04-29T00:35:00;14.45;;;7.22;;
49296;SDS011;35163;48.878;18.040;2023-04-29T00:37:27;17.80;;;7.32;;
49296;SDS011;35163;48.878;18.040;2023-04-29T00:39:54;13.30;;;6.75;;
49296;SDS011;35163;48.878;18.040;2023-04-29T00:42:20;16.83;;;7.75;;
49296;SDS011;35163;48.878;18.040;2023-04-29T00:44:47;16.08;;;6.82;;
49296;SDS011;35163;48.878;18.040;2023-04-29T00:47:14;15.98;;;7.97;;
49296;SDS011;35163;48.878;18.040;2023-04-29T00:49:41;14.93;;;6.30;;
49296;SDS011;35163;48.878;18.040;2023-04-29T00:52:07;16.88;;;7.90;;
49296;SDS011;35163;48.878;18.040;2023-04-29T00:54:37;13.98;;;8.07;;
49296;SDS011;35163;48.878;18.040;2023-04-29T00:57:04;12.02;;;6.72;;
49296;SDS011;35163;48.878;18.040;2023-04-29T00:59:31;14.40;;;6.80;;
49296;SDS011;35163;48.878;18.040;2023-04-29T01:02:00;13.00;;;7.15;;
49296;SDS011;35163;48.878;18.040;2023-04-29T01:04:28;15.88;;;7.30;;
49296;SDS011;35163;48.878;18.040;2023-04-29T01:09:49;17.02;;;7.60;;
49296;SDS011;35163;48.878;18.040;2023-04-29T01:15:05;17.27;;;6.72;;
49296;SDS011;35163;48.878;18.040;2023-04-29T01:17:42;10.93;;;6.93;;
49296;SDS011;35163;48.878;18.040;2023-04-29T01:20:22;13.87;;;7.00;;
49296;SDS011;35163;48.878;18.040;2023-04-29T01:22:50;16.80;;;7.45;;
49296;SDS011;35163;48.878;18.040;2023-04-29T01:25:20;12.57;;;6.65;;
49296;SDS011;35163;48.878;18.040;2023-04-29T01:38:43;14.38;;;6.97;;
49296;SDS011;35163;48.878;18.040;2023-04-29T01:41:22;17.38;;;7.90;;
49296;SDS011;35163;48.878;18.040;2023-04-29T01:44:02;13.98;;;7.07;;
49296;SDS011;35163;48.878;18.040;2023-04-29T01:46:33;15.70;;;6.43;;
49296;SDS011;35163;48.878;18.040;2023-04-29T01:49:00;16.40;;;6.78;;
49296;SDS011;35163;48.878;18.040;2023-04-29T01:51:29;19.15;;;7.38;;
49296;SDS011;35163;48.878;18.040;2023-04-29T01:53:57;15.07;;;6.78;;
49296;SDS011;35163;48.878;18.040;2023-04-29T01:56:24;13.65;;;7.13;;
49296;SDS011;35163;48.878;18.040;2023-04-29T01:58:50;20.13;;;7.38;;
49296;SDS011;35163;48.878;18.040;2023-04-29T02:01:17;15.13;;;6.80;;
49296;SDS011;35163;48.878;18.040;2023-04-29T02:03:44;18.40;;;7.30;;
49296;SDS011;35163;48.878;18.040;2023-04-29T02:06:11;15.15;;;7.75;;
49296;SDS011;35163;48.878;18.040;2023-04-29T02:08:38;14.45;;;6.55;;
49296;SDS011;35163;48.878;18.040;2023-04-29T02:11:04;19.63;;;7.93;;
49296;SDS011;35163;48.878;18.040;2023-04-29T02:13:31;14.60;;;7.60;;
49296;SDS011;35163;48.878;18.040;2023-04-29T02:16:05;18.42;;;7.32;;
49296;SDS011;35163;48.878;18.040;2023-04-29T02:18:36;18.08;;;7.57;;
49296;SDS011;35163;48.878;18.040;2023-04-29T02:21:03;13.13;;;6.40;;
49296;SDS011;35163;48.878;18.040;2023-04-29T02:23:29;15.75;;;7.45;;
49296;SDS011;35163;48.878;18.040;2023-04-29T02:25:56;12.80;;;6.57;;
49296;SDS011;35163;48.878;18.040;2023-04-29T02:28:23;15.25;;;7.25;;
49296;SDS011;35163;48.878;18.040;2023-04-29T02:30:50;13.65;;;7.05;;
49296;SDS011;35163;48.878;18.040;2023-04-29T02:33:17;17.05;;;7.15;;
49296;SDS011;35163;48.878;18.040;2023-04-29T02:35:43;13.52;;;6.75;;
49296;SDS011;35163;48.878;18.040;2023-04-29T02:38:10;19.77;;;6.97;;
49296;SDS011;35163;48.878;18.040;2023-04-29T02:40:40;16.02;;;7.30;;
49296;SDS011;35163;48.878;18.040;2023-04-29T02:43:08;17.02;;;6.88;;
49296;SDS011;35163;48.878;18.040;2023-04-29T02:45:35;15.95;;;6.70;;
49296;SDS011;35163;48.878;18.040;2023-04-29T02:48:02;16.42;;;6.60;;
49296;SDS011;35163;48.878;18.040;2023-04-29T02:50:29;16.95;;;7.53;;
49296;SDS011;35163;48.878;18.040;2023-04-29T02:52:55;13.55;;;6.25;;
49296;SDS011;35163;48.878;18.040;2023-04-29T02:55:22;14.05;;;6.50;;
49296;SDS011;35163;48.878;18.040;2023-04-29T02:57:49;19.40;;;7.43;;
49296;SDS011;35163;48.878;18.040;2023-04-29T03:00:16;13.27;;;6.53;;
49296;SDS011;35163;48.878;18.040;2023-04-29T03:02:42;11.82;;;6.45;;
49296;SDS011;35163;48.878;18.040;2023-04-29T03:05:09;15.55;;;7.05;;
49296;SDS011;35163;48.878;18.040;2023-04-29T03:07:36;16.92;;;6.72;;
49296;SDS011;35163;48.878;18.040;2023-04-29T03:10:03;14.15;;;7.40;;
49296;SDS011;35163;48.878;18.040;2023-04-29T03:12:30;15.07;;;7.32;;
49296;SDS011;35163;48.878;18.040;2023-04-29T03:14:57;15.13;;;6.95;;
49296;SDS011;35163;48.878;18.040;2023-04-29T03:17:24;14.05;;;7.07;;
49296;SDS011;35163;48.878;18.040;2023-04-29T03:19:50;21.20;;;7.75;;
49296;SDS011;35163;48.878;18.040;2023-04-29T03:22:19;14.48;;;6.50;;
49296;SDS011;35163;48.878;18.040;2023-04-29T03:24:47;15.23;;;7.13;;
49296;SDS011;35163;48.878;18.040;2023-04-29T03:27:14;14.07;;;6.57;;
49296;SDS011;35163;48.878;18.040;2023-04-29T03:29:41;17.00;;;7.18;;
49296;SDS011;35163;48.878;18.040;2023-04-29T03:32:07;15.05;;;6.72;;
49296;SDS011;35163;48.878;18.040;2023-04-29T03:34:34;15.07;;;7.10;;
49296;SDS011;35163;48.878;18.040;2023-04-29T03:37:01;14.30;;;6.53;;
49296;SDS011;35163;48.878;18.040;2023-04-29T03:39:27;16.60;;;6.90;;
49296;SDS011;35163;48.878;18.040;2023-04-29T03:41:57;17.35;;;6.47;;
49296;SDS011;35163;48.878;18.040;2023-04-29T03:44:25;15.00;;;6.65;;
49296;SDS011;35163;48.878;18.040;2023-04-29T03:46:52;15.75;;;6.68;;
49296;SDS011;35163;48.878;18.040;2023-04-29T03:49:18;16.48;;;6.85;;
49296;SDS011;35163;48.878;18.040;2023-04-29T03:51:45;21.58;;;9.00;;
49296;SDS011;35163;48.878;18.040;2023-04-29T03:54:12;15.32;;;7.43;;
49296;SDS011;35163;48.878;18.040;2023-04-29T03:56:38;19.65;;;7.13;;
49296;SDS011;35163;48.878;18.040;2023-04-29T03:59:06;15.77;;;6.75;;
49296;SDS011;35163;48.878;18.040;2023-04-29T04:01:32;16.90;;;7.13;;
49296;SDS011;35163;48.878;18.040;2023-04-29T04:04:02;18.38;;;7.18;;
49296;SDS011;35163;48.878;18.040;2023-04-29T04:06:29;14.40;;;6.93;;
49296;SDS011;35163;48.878;18.040;2023-04-29T04:08:57;15.70;;;7.15;;
49296;SDS011;35163;48.878;18.040;2023-04-29T04:11:23;14.82;;;7.05;;
49296;SDS011;35163;48.878;18.040;2023-04-29T04:13:50;15.60;;;6.82;;
49296;SDS011;35163;48.878;18.040;2023-04-29T04:16:20;17.58;;;7.88;;
49296;SDS011;35163;48.878;18.040;2023-04-29T04:18:46;16.13;;;7.85;;
49296;SDS011;35163;48.878;18.040;2023-04-29T04:21:13;15.43;;;6.88;;
49296;SDS011;35163;48.878;18.040;2023-04-29T04:23:40;15.90;;;6.53;;
49296;SDS011;35163;48.878;18.040;2023-04-29T04:26:07;15.80;;;7.13;;
49296;SDS011;35163;48.878;18.040;2023-04-29T04:28:33;21.90;;;8.73;;
49296;SDS011;35163;48.878;18.040;2023-04-29T04:31:00;18.65;;;7.25;;
49296;SDS011;35163;48.878;18.040;2023-04-29T04:33:27;18.83;;;7.32;;
49296;SDS011;35163;48.878;18.040;2023-04-29T04:35:54;15.13;;;7.22;;
49296;SDS011;35163;48.878;18.040;2023-04-29T04:38:20;14.70;;;6.72;;
49296;SDS011;35163;48.878;18.040;2023-04-29T04:40:50;16.95;;;7.65;;
49296;SDS011;35163;48.878;18.040;2023-04-29T04:43:17;19.40;;;7.57;;
49296;SDS011;35163;48.878;18.040;2023-04-29T04:45:46;19.45;;;7.70;;
49296;SDS011;35163;48.878;18.040;2023-04-29T04:48:13;15.27;;;6.75;;
49296;SDS011;35163;48.878;18.040;2023-04-29T04:50:40;20.13;;;7.43;;
49296;SDS011;35163;48.878;18.040;2023-04-29T04:53:06;16.70;;;6.82;;
49296;SDS011;35163;48.878;18.040;2023-04-29T04:55:33;21.33;;;6.72;;
49296;SDS011;35163;48.878;18.040;2023-04-29T04:58:00;14.50;;;6.55;;
49296;SDS011;35163;48.878;18.040;2023-04-29T05:00:26;18.58;;;7.00;;
49296;SDS011;35163;48.878;18.040;2023-04-29T05:02:53;15.88;;;6.90;;
49296;SDS011;35163;48.878;18.040;2023-04-29T05:05:20;16.77;;;6.70;;
49296;SDS011;35163;48.878;18.040;2023-04-29T05:07:47;17.23;;;6.10;;
49296;SDS011;35163;48.878;18.040;2023-04-29T05:10:13;19.80;;;7.30;;
49296;SDS011;35163;48.878;18.040;2023-04-29T05:12:40;15.10;;;7.05;;
49296;SDS011;35163;48.878;18.040;2023-04-29T05:15:07;18.23;;;7.85;;
49296;SDS011;35163;48.878;18.040;2023-04-29T05:17:33;15.88;;;6.85;;
49296;SDS011;35163;48.878;18.040;2023-04-29T05:20:01;15.82;;;6.60;;
49296;SDS011;35163;48.878;18.040;2023-04-29T05:22:28;11.18;;;5.50;;
49296;SDS011;35163;48.878;18.040;2023-04-29T05:24:55;15.35;;;5.55;;
49296;SDS011;35163;48.878;18.040;2023-04-29T05:27:28;15.10;;;5.68;;
49296;SDS011;35163;48.878;18.040;2023-04-29T05:29:55;15.30;;;6.60;;
49296;SDS011;35163;48.878;18.040;2023-04-29T05:32:22;16.33;;;5.93;;
49296;SDS011;35163;48.878;18.040;2023-04-29T05:34:49;17.95;;;6.30;;
49296;SDS011;35163;48.878;18.040;2023-04-29T05:37:18;12.18;;;5.82;;
49296;SDS011;35163;48.878;18.040;2023-04-29T05:39:44;19.95;;;5.97;;
49296;SDS011;35163;48.878;18.040;2023-04-29T05:42:11;14.60;;;6.32;;
49296;SDS011;35163;48.878;18.040;2023-04-29T05:44:38;20.20;;;9.95;;
49296;SDS011;35163;48.878;18.040;2023-04-29T05:47:05;15.57;;;7.70;;
49296;SDS011;35163;48.878;18.040;2023-04-29T05:49:31;16.02;;;6.47;;
49296;SDS011;35163;48.878;18.040;2023-04-29T05:51:58;19.42;;;6.32;;
49296;SDS011;35163;48.878;18.040;2023-04-29T05:54:29;16.58;;;6.38;;
49296;SDS011;35163;48.878;18.040;2023-04-29T05:56:56;13.80;;;5.90;;
49296;SDS011;35163;48.878;18.040;2023-04-29T05:59:22;13.68;;;6.60;;
49296;SDS011;35163;48.878;18.040;2023-04-29T06:01:49;13.82;;;6.40;;
49296;SDS011;35163;48.878;18.040;2023-04-29T06:04:16;15.82;;;6.38;;
49296;SDS011;35163;48.878;18.040;2023-04-29T06:06:43;13.57;;;5.97;;
49296;SDS011;35163;48.878;18.040;2023-04-29T06:09:10;16.02;;;6.35;;
49296;SDS011;35163;48.878;18.040;2023-04-29T06:11:52;13.80;;;7.07;;
49296;SDS011;35163;48.878;18.040;2023-04-29T06:14:18;19.23;;;6.30;;
49296;SDS011;35163;48.878;18.040;2023-04-29T06:16:45;14.45;;;6.85;;
49296;SDS011;35163;48.878;18.040;2023-04-29T06:19:12;14.75;;;7.13;;
49296;SDS011;35163;48.878;18.040;2023-04-29T06:21:39;16.80;;;7.32;;
49296;SDS011;35163;48.878;18.040;2023-04-29T06:24:06;15.70;;;6.72;;
49296;SDS011;35163;48.878;18.040;2023-04-29T06:26:33;15.20;;;6.63;;
49296;SDS011;35163;48.878;18.040;2023-04-29T06:28:59;15.45;;;6.40;;
49296;SDS011;35163;48.878;18.040;2023-04-29T06:31:26;12.50;;;6.22;;
49296;SDS011;35163;48.878;18.040;2023-04-29T06:33:55;16.58;;;6.75;;
49296;SDS011;35163;48.878;18.040;2023-04-29T06:36:22;15.55;;;6.68;;
49296;SDS011;35163;48.878;18.040;2023-04-29T06:38:49;14.00;;;5.75;;
49296;SDS011;35163;48.878;18.040;2023-04-29T06:41:16;14.82;;;6.03;;
49296;SDS011;35163;48.878;18.040;2023-04-29T06:43:42;14.73;;;6.63;;
49296;SDS011;35163;48.878;18.040;2023-04-29T06:46:11;17.23;;;6.00;;
49296;SDS011;35163;48.878;18.040;2023-04-29T06:48:38;13.43;;;6.40;;
49296;SDS011;35163;48.878;18.040;2023-04-29T06:51:05;21.20;;;5.63;;
49296;SDS011;35163;48.878;18.040;2023-04-29T06:53:32;16.77;;;6.38;;
49296;SDS011;35163;48.878;18.040;2023-04-29T06:55:59;15.77;;;6.05;;
49296;SDS011;35163;48.878;18.040;2023-04-29T06:58:25;23.02;;;6.25;;
49296;SDS011;35163;48.878;18.040;2023-04-29T07:00:52;14.77;;;5.65;;
49296;SDS011;35163;48.878;18.040;2023-04-29T07:03:19;12.50;;;5.57;;
49296;SDS011;35163;48.878;18.040;2023-04-29T07:05:46;16.00;;;5.72;;
49296;SDS011;35163;48.878;18.040;2023-04-29T07:08:13;12.43;;;5.72;;
49296;SDS011;35163;48.878;18.040;2023-04-29T07:10:40;14.40;;;5.60;;
49296;SDS011;35163;48.878;18.040;2023-04-29T07:13:06;12.73;;;5.47;;
49296;SDS011;35163;48.878;18.040;2023-04-29T07:15:34;14.52;;;6.20;;
49296;SDS011;35163;48.878;18.040;2023-04-29T07:18:04;13.40;;;5.75;;
49296;SDS011;35163;48.878;18.040;2023-04-29T07:20:32;18.63;;;6.50;;
49296;SDS011;35163;48.878;18.040;2023-04-29T07:23:01;11.05;;;6.25;;
49296;SDS011;35163;48.878;18.040;2023-04-29T07:25:28;15.88;;;5.88;;
49296;SDS011;35163;48.878;18.040;2023-04-29T07:27:57;15.18;;;6.63;;
49296;SDS011;35163;48.878;18.040;2023-04-29T07:30:24;11.82;;;6.05;;
49296;SDS011;35163;48.878;18.040;2023-04-29T07:32:51;14.55;;;6.75;;
49296;SDS011;35163;48.878;18.040;2023-04-29T07:35:20;16.08;;;7.20;;
49296;SDS011;35163;48.878;18.040;2023-04-29T07:37:46;15.07;;;7.20;;
49296;SDS011;35163;48.878;18.040;2023-04-29T07:40:13;13.82;;;6.05;;
49296;SDS011;35163;48.878;18.040;2023-04-29T07:42:40;13.82;;;6.95;;
49296;SDS011;35163;48.878;18.040;2023-04-29T07:45:06;13.13;;;6.10;;
49296;SDS011;35163;48.878;18.040;2023-04-29T07:47:36;14.82;;;7.18;;
49296;SDS011;35163;48.878;18.040;2023-04-29T07:50:03;18.98;;;6.85;;
49296;SDS011;35163;48.878;18.040;2023-04-29T07:52:32;14.48;;;6.30;;
49296;SDS011;35163;48.878;18.040;2023-04-29T07:54:59;12.13;;;6.30;;
49296;SDS011;35163;48.878;18.040;2023-04-29T07:57:28;12.70;;;6.70;;
49296;SDS011;35163;48.878;18.040;2023-04-29T07:59:55;15.40;;;6.65;;
49296;SDS011;35163;48.878;18.040;2023-04-29T08:02:21;12.25;;;6.25;;
49296;SDS011;35163;48.878;18.040;2023-04-29T08:04:48;13.38;;;6.00;;
49296;SDS011;35163;48.878;18.040;2023-04-29T08:07:17;12.40;;;5.60;;
49296;SDS011;35163;48.878;18.040;2023-04-29T08:09:43;12.63;;;6.30;;
49296;SDS011;35163;48.878;18.040;2023-04-29T08:12:10;12.93;;;5.43;;
49296;SDS011;35163;48.878;18.040;2023-04-29T08:14:37;15.38;;;6.20;;
49296;SDS011;35163;48.878;18.040;2023-04-29T08:17:04;16.33;;;6.47;;
49296;SDS011;35163;48.878;18.040;2023-04-29T08:19:31;11.88;;;6.03;;
49296;SDS011;35163;48.878;18.040;2023-04-29T08:21:58;12.60;;;6.28;;
49296;SDS011;35163;48.878;18.040;2023-04-29T08:24:26;14.23;;;6.47;;
49296;SDS011;35163;48.878;18.040;2023-04-29T08:26:54;14.05;;;6.63;;
49296;SDS011;35163;48.878;18.040;2023-04-29T08:29:21;14.05;;;6.35;;
49296;SDS011;35163;48.878;18.040;2023-04-29T08:31:47;12.85;;;5.75;;
49296;SDS011;35163;48.878;18.040;2023-04-29T08:34:15;14.38;;;6.53;;
49296;SDS011;35163;48.878;18.040;2023-04-29T08:36:42;13.55;;;6.85;;
49296;SDS011;35163;48.878;18.040;2023-04-29T08:39:08;14.95;;;6.20;;
49296;SDS011;35163;48.878;18.040;2023-04-29T08:41:35;18.50;;;6.38;;
49296;SDS011;35163;48.878;18.040;2023-04-29T08:44:02;14.77;;;6.60;;
49296;SDS011;35163;48.878;18.040;2023-04-29T08:46:28;16.73;;;6.32;;
49296;SDS011;35163;48.878;18.040;2023-04-29T08:48:57;14.63;;;6.47;;
49296;SDS011;35163;48.878;18.040;2023-04-29T08:51:24;13.00;;;6.03;;
49296;SDS011;35163;48.878;18.040;2023-04-29T08:53:51;16.92;;;7.63;;
49296;SDS011;35163;48.878;18.040;2023-04-29T08:56:21;11.93;;;6.13;;
49296;SDS011;35163;48.878;18.040;2023-04-29T08:58:49;13.55;;;6.53;;
49296;SDS011;35163;48.878;18.040;2023-04-29T09:01:25;13.43;;;5.72;;
49296;SDS011;35163;48.878;18.040;2023-04-29T09:06:30;13.38;;;6.60;;
49296;SDS011;35163;48.878;18.040;2023-04-29T09:08:59;13.82;;;6.80;;
49296;SDS011;35163;48.878;18.040;2023-04-29T09:11:29;14.20;;;6.40;;
49296;SDS011;35163;48.878;18.040;2023-04-29T09:13:59;12.18;;;6.38;;
49296;SDS011;35163;48.878;18.040;2023-04-29T09:16:29;11.55;;;6.45;;
49296;SDS011;35163;48.878;18.040;2023-04-29T09:18:56;13.80;;;6.13;;
49296;SDS011;35163;48.878;18.040;2023-04-29T09:21:24;12.98;;;7.00;;
49296;SDS011;35163;48.878;18.040;2023-04-29T09:26:23;12.10;;;6.60;;
49296;SDS011;35163;48.878;18.040;2023-04-29T09:29:09;11.40;;;6.30;;
49296;SDS011;35163;48.878;18.040;2023-04-29T09:31:39;10.60;;;6.32;;
49296;SDS011;35163;48.878;18.040;2023-04-29T09:34:07;11.70;;;6.65;;
49296;SDS011;35163;48.878;18.040;2023-04-29T09:36:44;14.90;;;6.03;;
49296;SDS011;35163;48.878;18.040;2023-04-29T09:39:16;14.43;;;6.35;;
49296;SDS011;35163;48.878;18.040;2023-04-29T09:44:23;11.18;;;6.25;;
49296;SDS011;35163;48.878;18.040;2023-04-29T09:47:00;13.60;;;6.75;;
49296;SDS011;35163;48.878;18.040;2023-04-29T09:49:31;12.48;;;6.13;;
49296;SDS011;35163;48.878;18.040;2023-04-29T09:52:04;13.18;;;6.43;;
49296;SDS011;35163;48.878;18.040;2023-04-29T09:54:33;14.82;;;6.15;;
49296;SDS011;35163;48.878;18.040;2023-04-29T09:57:02;13.60;;;6.15;;
49296;SDS011;35163;48.878;18.040;2023-04-29T09:59:32;16.23;;;7.00;;
49296;SDS011;35163;48.878;18.040;2023-04-29T10:02:02;15.05;;;6.53;;
49296;SDS011;35163;48.878;18.040;2023-04-29T10:04:37;13.77;;;6.50;;
49296;SDS011;35163;48.878;18.040;2023-04-29T10:07:07;17.98;;;7.40;;
49296;SDS011;35163;48.878;18.040;2023-04-29T10:09:34;14.75;;;6.82;;
49296;SDS011;35163;48.878;18.040;2023-04-29T10:12:03;12.77;;;7.03;;
49296;SDS011;35163;48.878;18.040;2023-04-29T10:14:35;15.98;;;6.85;;
49296;SDS011;35163;48.878;18.040;2023-04-29T10:17:23;13.05;;;6.72;;
49296;SDS011;35163;48.878;18.040;2023-04-29T10:20:20;14.95;;;6.97;;
49296;SDS011;35163;48.878;18.040;2023-04-29T10:22:50;16.92;;;8.07;;
49296;SDS011;35163;48.878;18.040;2023-04-29T10:25:18;13.70;;;7.40;;
49296;SDS011;35163;48.878;18.040;2023-04-29T10:27:46;12.23;;;6.85;;
49296;SDS011;35163;48.878;18.040;2023-04-29T10:30:15;24.67;;;7.75;;
49296;SDS011;35163;48.878;18.040;2023-04-29T10:32:43;14.52;;;6.90;;
49296;SDS011;35163;48.878;18.040;2023-04-29T10:35:17;14.87;;;8.63;;
49296;SDS011;35163;48.878;18.040;2023-04-29T10:37:46;13.85;;;7.75;;
49296;SDS011;35163;48.878;18.040;2023-04-29T10:40:17;18.55;;;7.88;;
49296;SDS011;35163;48.878;18.040;2023-04-29T10:42:50;13.82;;;7.60;;
49296;SDS011;35163;48.878;18.040;2023-04-29T10:45:27;13.82;;;7.25;;
49296;SDS011;35163;48.878;18.040;2023-04-29T10:50:28;13.60;;;6.70;;
49296;SDS011;35163;48.878;18.040;2023-04-29T10:52:55;14.15;;;7.22;;
49296;SDS011;35163;48.878;18.040;2023-04-29T10:55:23;17.38;;;7.85;;
49296;SDS011;35163;48.878;18.040;2023-04-29T10:57:54;17.27;;;7.93;;
49296;SDS011;35163;48.878;18.040;2023-04-29T11:00:26;15.05;;;7.75;;
49296;SDS011;35163;48.878;18.040;2023-04-29T11:02:54;12.75;;;7.18;;
49296;SDS011;35163;48.878;18.040;2023-04-29T11:05:34;11.52;;;6.88;;
49296;SDS011;35163;48.878;18.040;2023-04-29T11:08:35;15.15;;;7.53;;
49296;SDS011;35163;48.878;18.040;2023-04-29T11:10:59;11.27;;;6.65;;
49296;SDS011;35163;48.878;18.040;2023-04-29T11:13:30;14.60;;;7.93;;
49296;SDS011;35163;48.878;18.040;2023-04-29T11:16:07;15.40;;;6.95;;
49296;SDS011;35163;48.878;18.040;2023-04-29T11:18:36;14.85;;;7.13;;
49296;SDS011;35163;48.878;18.040;2023-04-29T11:21:36;13.63;;;7.10;;
49296;SDS011;35163;48.878;18.040;2023-04-29T11:24:03;19.42;;;7.80;;
49296;SDS011;35163;48.878;18.040;2023-04-29T11:26:34;17.80;;;7.22;;
49296;SDS011;35163;48.878;18.040;2023-04-29T11:29:02;11.95;;;6.60;;
49296;SDS011;35163;48.878;18.040;2023-04-29T11:31:31;18.55;;;11.25;;
49296;SDS011;35163;48.878;18.040;2023-04-29T11:33:58;18.10;;;8.80;;
49296;SDS011;35163;48.878;18.040;2023-04-29T11:36:25;14.35;;;7.88;;
49296;SDS011;35163;48.878;18.040;2023-04-29T11:38:52;12.70;;;7.00;;
49296;SDS011;35163;48.878;18.040;2023-04-29T11:41:19;13.95;;;7.25;;
49296;SDS011;35163;48.878;18.040;2023-04-29T11:43:53;14.40;;;7.10;;
49296;SDS011;35163;48.878;18.040;2023-04-29T11:46:24;12.52;;;6.22;;
49296;SDS011;35163;48.878;18.040;2023-04-29T11:48:53;13.70;;;7.72;;
49296;SDS011;35163;48.878;18.040;2023-04-29T11:51:20;13.10;;;6.07;;
49296;SDS011;35163;48.878;18.040;2023-04-29T11:53:50;17.98;;;8.45;;
49296;SDS011;35163;48.878;18.040;2023-04-29T11:56:20;14.00;;;6.72;;
49296;SDS011;35163;48.878;18.040;2023-04-29T11:58:54;13.98;;;6.93;;
49296;SDS011;35163;48.878;18.040;2023-04-29T12:01:22;13.93;;;7.20;;
49296;SDS011;35163;48.878;18.040;2023-04-29T12:03:50;17.00;;;7.70;;
49296;SDS011;35163;48.878;18.040;2023-04-29T12:06:17;13.10;;;7.85;;
49296;SDS011;35163;48.878;18.040;2023-04-29T12:08:47;12.90;;;7.95;;
49296;SDS011;35163;48.878;18.040;2023-04-29T12:11:13;15.00;;;7.78;;
49296;SDS011;35163;48.878;18.040;2023-04-29T12:13:40;15.93;;;8.30;;
49296;SDS011;35163;48.878;18.040;2023-04-29T12:16:09;16.08;;;8.43;;
49296;SDS011;35163;48.878;18.040;2023-04-29T12:18:36;17.05;;;8.65;;
49296;SDS011;35163;48.878;18.040;2023-04-29T12:21:04;20.35;;;9.45;;
49296;SDS011;35163;48.878;18.040;2023-04-29T12:23:31;16.15;;;8.90;;
49296;SDS011;35163;48.878;18.040;2023-04-29T12:26:01;19.27;;;8.85;;
49296;SDS011;35163;48.878;18.040;2023-04-29T12:28:29;16.50;;;9.20;;
49296;SDS011;35163;48.878;18.040;2023-04-29T12:30:57;16.55;;;9.63;;
49296;SDS011;35163;48.878;18.040;2023-04-29T12:33:25;16.67;;;8.77;;
49296;SDS011;35163;48.878;18.040;2023-04-29T12:35:55;17.27;;;8.55;;
49296;SDS011;35163;48.878;18.040;2023-04-29T12:38:24;17.02;;;8.80;;
49296;SDS011;35163;48.878;18.040;2023-04-29T12:40:57;17.27;;;9.60;;
49296;SDS011;35163;48.878;18.040;2023-04-29T12:43:28;15.73;;;9.73;;
49296;SDS011;35163;48.878;18.040;2023-04-29T12:48:29;16.63;;;9.65;;
49296;SDS011;35163;48.878;18.040;2023-04-29T12:50:59;15.70;;;8.57;;
49296;SDS011;35163;48.878;18.040;2023-04-29T12:53:30;14.02;;;8.77;;
49296;SDS011;35163;48.878;18.040;2023-04-29T12:55:57;16.42;;;8.82;;
49296;SDS011;35163;48.878;18.040;2023-04-29T12:58:24;15.68;;;8.90;;
49296;SDS011;35163;48.878;18.040;2023-04-29T13:00:55;14.57;;;8.98;;
49296;SDS011;35163;48.878;18.040;2023-04-29T13:03:22;13.68;;;8.15;;
49296;SDS011;35163;48.878;18.040;2023-04-29T13:05:50;14.38;;;8.38;;
49296;SDS011;35163;48.878;18.040;2023-04-29T13:08:21;20.88;;;9.02;;
49296;SDS011;35163;48.878;18.040;2023-04-29T13:10:50;13.30;;;7.85;;
49296;SDS011;35163;48.878;18.040;2023-04-29T13:13:17;18.25;;;9.30;;
49296;SDS011;35163;48.878;18.040;2023-04-29T13:15:43;15.23;;;7.68;;
49296;SDS011;35163;48.878;18.040;2023-04-29T13:18:10;13.70;;;7.88;;
49296;SDS011;35163;48.878;18.040;2023-04-29T13:20:37;13.68;;;8.35;;
49296;SDS011;35163;48.878;18.040;2023-04-29T13:23:08;19.08;;;8.77;;
49296;SDS011;35163;48.878;18.040;2023-04-29T13:25:35;12.88;;;6.88;;
49296;SDS011;35163;48.878;18.040;2023-04-29T13:28:03;15.88;;;6.93;;
49296;SDS011;35163;48.878;18.040;2023-04-29T13:30:33;14.15;;;7.45;;
49296;SDS011;35163;48.878;18.040;2023-04-29T13:33:00;15.25;;;7.82;;
49296;SDS011;35163;48.878;18.040;2023-04-29T13:35:37;16.38;;;8.27;;
49296;SDS011;35163;48.878;18.040;2023-04-29T13:38:06;14.20;;;7.50;;
49296;SDS011;35163;48.878;18.040;2023-04-29T13:40:33;13.32;;;7.45;;
49296;SDS011;35163;48.878;18.040;2023-04-29T13:43:07;14.57;;;7.20;;
49296;SDS011;35163;48.878;18.040;2023-04-29T13:45:35;14.75;;;7.40;;
49296;SDS011;35163;48.878;18.040;2023-04-29T13:48:07;17.50;;;7.60;;
49296;SDS011;35163;48.878;18.040;2023-04-29T13:50:54;14.50;;;7.55;;
49296;SDS011;35163;48.878;18.040;2023-04-29T13:53:24;15.07;;;8.32;;
49296;SDS011;35163;48.878;18.040;2023-04-29T13:56:11;16.00;;;8.73;;
49296;SDS011;35163;48.878;18.040;2023-04-29T13:58:41;16.75;;;7.68;;
49296;SDS011;35163;48.878;18.040;2023-04-29T14:01:27;16.60;;;7.72;;
49296;SDS011;35163;48.878;18.040;2023-04-29T14:03:57;16.83;;;9.10;;
49296;SDS011;35163;48.878;18.040;2023-04-29T14:06:24;16.30;;;9.27;;
49296;SDS011;35163;48.878;18.040;2023-04-29T14:08:50;15.85;;;8.77;;
49296;SDS011;35163;48.878;18.040;2023-04-29T14:11:19;13.85;;;8.65;;
49296;SDS011;35163;48.878;18.040;2023-04-29T14:13:46;17.38;;;8.43;;
49296;SDS011;35163;48.878;18.040;2023-04-29T14:16:13;17.35;;;8.43;;
49296;SDS011;35163;48.878;18.040;2023-04-29T14:18:39;13.80;;;8.27;;
49296;SDS011;35163;48.878;18.040;2023-04-29T14:21:06;14.88;;;8.60;;
49296;SDS011;35163;48.878;18.040;2023-04-29T14:23:33;17.88;;;10.02;;
49296;SDS011;35163;48.878;18.040;2023-04-29T14:26:02;15.85;;;9.00;;
49296;SDS011;35163;48.878;18.040;2023-04-29T14:28:49;13.18;;;8.30;;
49296;SDS011;35163;48.878;18.040;2023-04-29T14:31:23;14.60;;;7.88;;
49296;SDS011;35163;48.878;18.040;2023-04-29T14:33:57;15.85;;;8.93;;
49296;SDS011;35163;48.878;18.040;2023-04-29T14:36:24;16.70;;;8.52;;
49296;SDS011;35163;48.878;18.040;2023-04-29T14:38:54;16.52;;;8.57;;
49296;SDS011;35163;48.878;18.040;2023-04-29T14:41:23;15.15;;;8.02;;
49296;SDS011;35163;48.878;18.040;2023-04-29T14:43:50;14.73;;;8.07;;
49296;SDS011;35163;48.878;18.040;2023-04-29T14:46:19;18.73;;;9.20;;
49296;SDS011;35163;48.878;18.040;2023-04-29T14:48:47;14.57;;;9.15;;
49296;SDS011;35163;48.878;18.040;2023-04-29T14:51:14;13.73;;;8.45;;
49296;SDS011;35163;48.878;18.040;2023-04-29T14:53:41;14.63;;;7.88;;
49296;SDS011;35163;48.878;18.040;2023-04-29T14:56:08;12.98;;;7.40;;
49296;SDS011;35163;48.878;18.040;2023-04-29T14:58:34;13.23;;;7.93;;